| time (UTC) | temp F | wind direction | speed knots | gust knots | rain 1hr in | rain 24hr in | rain mn in | humidity % | barometer mb |
| 20260831211505 | 74 | 158 | 0.0 | 1.7 | 0.00 | 0.00 | 0.00 | 69 | 1021.4 |
| 20260831210004 | 73 | 158 | 0.0 | 0.0 | 0.00 | 0.00 | 0.00 | 71 | 1021.3 |
| 20260831204503 | 72 | 158 | 0.0 | 0.9 | 0.00 | 0.00 | 0.00 | 70 | 1021.3 |
| 20260831203002 | 72 | 158 | 0.0 | 1.7 | 0.00 | 0.00 | 0.00 | 70 | 1021.4 |
| 20260831201501 | 71 | 158 | 0.0 | 0.0 | 0.00 | 0.00 | 0.00 | 72 | 1021.6 |
| 20260831200100 | 71 | 158 | 0.0 | 0.0 | 0.00 | 0.00 | 0.00 | 75 | 1021.7 |
| 20260831194624 | 70 | 158 | 0.0 | 0.0 | 0.00 | 0.00 | 0.00 | 73 | 1021.7 |
| 20260831193058 | 70 | 158 | 0.0 | 0.0 | 0.00 | 0.00 | 0.00 | 74 | 1021.8 |
| 20260831191604 | 70 | 158 | 0.0 | 0.0 | 0.00 | 0.00 | 0.00 | 73 | 1021.9 |
| 20260831190108 | 70 | 158 | 0.0 | 0.9 | 0.00 | 0.00 | 0.00 | 71 | 1022.0 |
| 20260831184558 | 71 | 158 | 0.9 | 1.7 | 0.00 | 0.00 | 0.00 | 69 | 1022.1 |
| 20260831183059 | 74 | 159 | 0.0 | 1.7 | 0.00 | 0.00 | 0.00 | 67 | 1022.2 |
| 20260831181559 | 76 | 159 | 0.0 | 1.7 | 0.00 | 0.00 | 0.00 | 66 | 1022.0 |
| 20260831180055 | 77 | 159 | 0.0 | 1.7 | 0.00 | 0.00 | 0.00 | 63 | 1022.1 |
| 20260831174559 | 77 | 123 | 0.0 | 0.9 | 0.00 | 0.00 | 0.00 | 66 | 1022.1 |
| 20260831173117 | 76 | 123 | 0.0 | 0.9 | 0.00 | 0.00 | 0.00 | 67 | 1022.3 |
| 20260831171547 | 74 | 123 | 0.0 | 0.0 | 0.00 | 0.00 | 0.00 | 69 | 1022.5 |
| 20260831170041 | 72 | 123 | 0.0 | 1.7 | 0.00 | 0.00 | 0.00 | 73 | 1022.7 |
| 20260831164546 | 71 | 123 | 0.0 | 0.9 | 0.00 | 0.00 | 0.00 | 74 | 1022.9 |
| 20260831163040 | 71 | 123 | 0.0 | 0.9 | 0.00 | 0.00 | 0.00 | 76 | 1023.1 |
| 20260831161535 | 71 | 123 | 0.0 | 0.9 | 0.00 | 0.00 | 0.00 | 76 | 1023.2 |
| 20260831160036 | 70 | 123 | 0.0 | 0.9 | 0.00 | 0.00 | 0.00 | 77 | 1023.1 |
| 20260831154535 | 69 | 123 | 0.0 | 0.0 | 0.00 | 0.00 | 0.00 | 79 | 1023.1 |
| 20260831153028 | 68 | 123 | 0.0 | 0.9 | 0.00 | 0.00 | 0.00 | 79 | 1023.2 |
| 20260831151526 | 68 | 123 | 0.0 | 2.6 | 0.00 | 0.00 | 0.00 | 79 | 1023.2 |
| 20260831150033 | 67 | 123 | 0.0 | 0.9 | 0.00 | 0.00 | 0.00 | 79 | 1023.3 |
| 20260831144523 | 67 | 123 | 0.0 | 0.0 | 0.00 | 0.00 | 0.00 | 80 | 1023.2 |
| 20260831143022 | 67 | 123 | 0.0 | 0.9 | 0.00 | 0.00 | 0.00 | 79 | 1023.3 |
| 20260831141521 | 67 | 123 | 0.0 | 0.0 | 0.00 | 0.00 | 0.00 | 80 | 1023.1 |
| 20260831140019 | 67 | 123 | 0.0 | 0.0 | 0.00 | 0.00 | 0.00 | 80 | 1023.0 |
| 20260831134521 | 67 | 123 | 0.0 | 0.9 | 0.00 | 0.00 | 0.00 | 80 | 1023.0 |
| 20260831133025 | 66 | 123 | 0.0 | 0.9 | 0.00 | 0.00 | 0.00 | 79 | 1022.9 |
| 20260831131516 | 66 | 123 | 0.0 | 0.0 | 0.00 | 0.00 | 0.00 | 80 | 1022.9 |
| 20260831130016 | 66 | 123 | 0.0 | 0.0 | 0.00 | 0.00 | 0.00 | 79 | 1022.8 |
| 20260831124534 | 66 | 123 | 0.0 | 0.0 | 0.00 | 0.01 | 0.00 | 80 | 1022.7 |
| 20260831123012 | 65 | 123 | 0.0 | 0.0 | 0.00 | 0.01 | 0.00 | 79 | 1022.5 |
| 20260831121511 | 65 | 123 | 0.0 | 0.0 | 0.00 | 0.01 | 0.00 | 78 | 1022.4 |
| 20260831120010 | 65 | 123 | 0.0 | 0.0 | 0.00 | 0.01 | 0.00 | 78 | 1022.2 |
| 20260831114518 | 65 | 123 | 0.0 | 0.0 | 0.00 | 0.01 | 0.00 | 78 | 1022.1 |
| 20260831113011 | 65 | 123 | 0.0 | 0.0 | 0.00 | 0.01 | 0.00 | 77 | 1022.1 |
| 20260831111507 | 65 | 123 | 0.0 | 0.0 | 0.00 | 0.01 | 0.00 | 77 | 1022.0 |
| 20260831110008 | 65 | 123 | 0.0 | 0.9 | 0.00 | 0.01 | 0.00 | 78 | 1022.0 |
| 20260831104512 | 65 | 123 | 0.0 | 0.9 | 0.00 | 0.01 | 0.00 | 78 | 1021.8 |
| 20260831103006 | 64 | 123 | 0.0 | 0.0 | 0.00 | 0.01 | 0.00 | 79 | 1021.8 |
| 20260831101506 | 65 | 123 | 0.0 | 0.9 | 0.00 | 0.01 | 0.00 | 78 | 1021.7 |
| 20260831100005 | 65 | 123 | 0.0 | 0.0 | 0.00 | 0.01 | 0.00 | 78 | 1021.6 |
| 20260831094506 | 66 | 123 | 0.0 | 0.0 | 0.00 | 0.01 | 0.00 | 77 | 1021.5 |
| 20260831093004 | 66 | 123 | 0.0 | 0.0 | 0.00 | 0.01 | 0.00 | 77 | 1021.5 |
| 20260831091502 | 65 | 123 | 0.0 | 0.0 | 0.00 | 0.01 | 0.00 | 78 | 1021.3 |
| 20260831084600 | 65 | 123 | 0.0 | 0.0 | 0.00 | 0.01 | 0.00 | 79 | 1021.5 |
| 20260831083105 | 65 | 123 | 0.0 | 0.0 | 0.00 | 0.01 | 0.00 | 79 | 1021.4 |
| 20260831081603 | 65 | 123 | 0.0 | 0.0 | 0.00 | 0.01 | 0.00 | 79 | 1021.5 |
| 20260831080057 | 65 | 123 | 0.0 | 0.0 | 0.00 | 0.01 | 0.00 | 80 | 1021.6 |
| 20260831074557 | 65 | 123 | 0.0 | 0.0 | 0.00 | 0.01 | 0.00 | 80 | 1021.8 |
| 20260831073059 | 65 | 123 | 0.0 | 0.0 | 0.00 | 0.01 | 0.00 | 80 | 1021.8 |
| 20260831071555 | 65 | 123 | 0.0 | 0.0 | 0.00 | 0.01 | 0.00 | 81 | 1021.7 |
| 20260831070057 | 65 | 123 | 0.0 | 0.0 | 0.00 | 0.01 | 0.00 | 81 | 1021.8 |
| 20260831064553 | 65 | 123 | 0.0 | 0.0 | 0.00 | 0.01 | 0.00 | 81 | 1021.8 |
| 20260831063053 | 65 | 123 | 0.0 | 0.0 | 0.00 | 0.01 | 0.00 | 81 | 1021.8 |
| 20260831061552 | 65 | 123 | 0.0 | 0.0 | 0.00 | 0.01 | 0.00 | 81 | 1021.7 |
| 20260831060050 | 65 | 123 | 0.0 | 0.0 | 0.00 | 0.01 | 0.00 | 81 | 1022.0 |
| 20260831054549 | 65 | 123 | 0.0 | 0.0 | 0.00 | 0.01 | 0.00 | 81 | 1022.0 |
| 20260831053048 | 66 | 123 | 0.0 | 0.0 | 0.00 | 0.01 | 0.00 | 80 | 1021.9 |
| 20260831051547 | 66 | 123 | 0.0 | 0.0 | 0.00 | 0.01 | 0.00 | 80 | 1022.1 |
| 20260831050101 | 66 | 123 | 0.0 | 0.0 | 0.00 | 0.01 | 0.00 | 79 | 1022.0 |
| 20260831044600 | 66 | 123 | 0.0 | 0.0 | 0.00 | 0.01 | 0.00 | 79 | 1022.0 |
| 20260831043043 | 66 | 123 | 0.0 | 0.0 | 0.00 | 0.01 | 0.00 | 79 | 1022.0 |
| 20260831041543 | 66 | 123 | 0.0 | 0.0 | 0.00 | 0.01 | 0.00 | 79 | 1022.2 |
| 20260831040041 | 67 | 123 | 0.0 | 0.0 | 0.00 | 0.01 | 0.00 | 79 | 1022.2 |
| 20260831034540 | 67 | 123 | 0.0 | 0.0 | 0.00 | 0.01 | 0.01 | 78 | 1022.2 |
| 20260831033040 | 67 | 123 | 0.0 | 0.9 | 0.00 | 0.01 | 0.01 | 78 | 1022.3 |
| 20260831031545 | 67 | 123 | 0.0 | 0.0 | 0.00 | 0.01 | 0.01 | 78 | 1022.4 |
| 20260831030039 | 67 | 123 | 0.0 | 0.0 | 0.00 | 0.01 | 0.01 | 78 | 1022.5 |
| 20260831024605 | 67 | 123 | 0.0 | 0.0 | 0.00 | 0.01 | 0.01 | 78 | 1022.5 |
| 20260831023038 | 67 | 123 | 0.0 | 0.0 | 0.00 | 0.01 | 0.01 | 79 | 1022.6 |
| 20260831021538 | 67 | 123 | 0.0 | 0.0 | 0.00 | 0.01 | 0.01 | 79 | 1022.4 |
| 20260831020100 | 67 | 123 | 0.0 | 0.0 | 0.00 | 0.01 | 0.01 | 79 | 1022.4 |
| 20260831014551 | 67 | 123 | 0.0 | 0.0 | 0.00 | 0.01 | 0.01 | 79 | 1022.2 |
| 20260831013036 | 67 | 123 | 0.0 | 0.0 | 0.00 | 0.01 | 0.01 | 80 | 1022.0 |
| 20260831011538 | 67 | 123 | 0.0 | 0.0 | 0.00 | 0.01 | 0.01 | 79 | 1021.9 |
| 20260831010044 | 67 | 123 | 0.0 | 0.0 | 0.00 | 0.01 | 0.01 | 79 | 1021.9 |
| 20260831004535 | 67 | 123 | 0.0 | 0.0 | 0.00 | 0.01 | 0.01 | 80 | 1021.9 |
| 20260831003035 | 68 | 123 | 0.0 | 0.0 | 0.00 | 0.01 | 0.01 | 79 | 1021.9 |
| 20260831001540 | 68 | 123 | 0.0 | 0.0 | 0.00 | 0.01 | 0.01 | 79 | 1021.8 |
| 20260831000033 | 68 | 123 | 0.0 | 0.0 | 0.00 | 0.01 | 0.01 | 78 | 1021.8 |
| 20260830234550 | 69 | 123 | 0.0 | 0.0 | 0.00 | 0.01 | 0.01 | 78 | 1021.7 |
| 20260830233034 | 69 | 123 | 0.0 | 0.0 | 0.00 | 0.01 | 0.01 | 78 | 1021.6 |
| 20260830231532 | 69 | 123 | 0.0 | 0.0 | 0.00 | 0.01 | 0.01 | 77 | 1021.5 |
| 20260830230037 | 70 | 123 | 0.0 | 0.0 | 0.00 | 0.01 | 0.01 | 77 | 1021.4 |
| 20260830224537 | 71 | 123 | 0.0 | 0.0 | 0.00 | 0.01 | 0.01 | 77 | 1021.4 |
| 20260830223030 | 71 | 123 | 0.0 | 0.0 | 0.00 | 0.01 | 0.01 | 78 | 1021.4 |
| 20260830221530 | 71 | 123 | 0.0 | 0.0 | 0.00 | 0.01 | 0.01 | 75 | 1021.5 |
| 20260830220032 | 71 | 123 | 0.0 | 1.7 | 0.00 | 0.01 | 0.01 | 76 | 1021.6 |
| 20260830214529 | 70 | 123 | 0.0 | 1.7 | 0.00 | 0.01 | 0.01 | 75 | 1021.4 |
| 20260830213028 | 70 | 123 | 0.9 | 2.6 | 0.00 | 0.01 | 0.01 | 75 | 1021.3 |